Time;durP1;ratioP1;P1;durP2;ratioP2;P2;SDS_P1;SDS_P2;PMS_P1;PMS_P2;Temp;Humidity;BMP_temperature;BMP_pressure;BME280_temperature;BME280_humidity;BME280_pressure;Samples;Min_cycle;Max_cycle;Signal;HPM_P1;HPM_P2
2024/01/25 00:00:18;;;;;;;20.15;4.25;;;9.00;86.90;;;;;;5070781;28;20059;-34
2024/01/25 00:02:43;;;;;;;19.10;4.05;;;9.00;86.90;;;;;;5071746;28;20461;-35
2024/01/25 00:05:09;;;;;;;18.52;4.00;;;8.90;86.90;;;;;;5071935;28;20017;-36
2024/01/25 00:07:35;;;;;;;28.10;4.28;;;8.90;87.00;;;;;;5071840;28;20017;-35
2024/01/25 00:10:01;;;;;;;14.00;3.70;;;8.80;87.10;;;;;;5071657;28;20523;-37
2024/01/25 00:12:26;;;;;;;19.10;3.97;;;8.80;87.10;;;;;;5071605;28;20031;-36
2024/01/25 00:14:53;;;;;;;17.80;3.83;;;8.70;87.10;;;;;;5071537;28;20103;-37
2024/01/25 00:17:19;;;;;;;18.92;4.28;;;8.70;87.20;;;;;;5071224;28;20024;-36
2024/01/25 00:19:44;;;;;;;19.60;4.43;;;8.70;87.30;;;;;;5071537;28;20093;-35
2024/01/25 00:22:10;;;;;;;20.95;4.95;;;8.60;87.20;;;;;;5071558;28;20465;-36
2024/01/25 00:24:36;;;;;;;18.85;4.85;;;8.60;87.20;;;;;;5071319;28;20028;-36
2024/01/25 00:27:02;;;;;;;23.23;4.13;;;8.60;87.30;;;;;;5071547;28;20055;-36
2024/01/25 00:29:30;;;;;;;14.82;4.03;;;8.50;87.30;;;;;;5071120;28;20024;-35
2024/01/25 00:31:56;;;;;;;13.75;3.72;;;8.50;87.30;;;;;;5071635;28;20029;-42
2024/01/25 00:34:22;;;;;;;20.35;4.53;;;8.50;87.40;;;;;;5069988;28;20519;-38
2024/01/25 00:36:48;;;;;;;18.17;4.00;;;8.50;87.40;;;;;;5071298;28;20036;-40
2024/01/25 00:39:13;;;;;;;19.30;4.35;;;8.50;87.40;;;;;;5071680;28;20056;-39
2024/01/25 00:41:41;;;;;;;15.65;4.00;;;8.40;87.40;;;;;;5071542;28;20025;-41
2024/01/25 00:44:08;;;;;;;21.60;4.15;;;8.40;87.40;;;;;;5071078;28;20048;-36
2024/01/25 00:46:33;;;;;;;16.48;3.97;;;8.40;87.50;;;;;;5071176;28;20032;-38
2024/01/25 00:48:59;;;;;;;17.40;3.85;;;8.40;87.50;;;;;;5071181;28;20426;-36
2024/01/25 00:51:25;;;;;;;18.13;4.22;;;8.30;87.50;;;;;;5071578;28;20046;-37
2024/01/25 00:53:51;;;;;;;14.10;3.80;;;8.30;87.60;;;;;;5071523;28;20065;-36
2024/01/25 00:56:17;;;;;;;20.58;4.60;;;8.30;87.60;;;;;;5071400;28;20024;-38
2024/01/25 00:58:43;;;;;;;18.48;4.13;;;8.30;87.60;;;;;;5071008;28;20099;-34
2024/01/25 01:01:09;;;;;;;14.93;3.55;;;8.20;87.60;;;;;;5071008;28;20040;-35
2024/01/25 01:03:36;;;;;;;20.15;3.78;;;8.20;87.70;;;;;;5069821;28;20017;-35
2024/01/25 01:06:02;;;;;;;17.33;3.22;;;8.20;87.70;;;;;;5070852;28;20029;-36
2024/01/25 01:08:28;;;;;;;14.75;3.65;;;8.20;87.70;;;;;;5071278;28;20028;-36
2024/01/25 01:10:53;;;;;;;20.67;3.10;;;8.20;87.70;;;;;;5070924;28;20064;-35
2024/01/25 01:13:19;;;;;;;15.88;3.80;;;8.20;87.80;;;;;;5071081;28;20029;-35
2024/01/25 01:15:44;;;;;;;13.05;3.40;;;8.20;87.80;;;;;;5071100;28;20021;-35
2024/01/25 01:18:10;;;;;;;16.88;3.53;;;8.20;87.90;;;;;;5071062;28;20032;-36
2024/01/25 01:20:36;;;;;;;14.77;3.20;;;8.20;88.00;;;;;;5070873;28;20500;-36
2024/01/25 01:23:01;;;;;;;14.95;3.25;;;8.10;88.00;;;;;;5071094;28;20477;-36
2024/01/25 01:25:27;;;;;;;18.40;3.85;;;8.10;88.00;;;;;;5070757;28;20099;-37
2024/01/25 01:27:52;;;;;;;12.88;2.85;;;8.10;88.10;;;;;;5070957;28;20484;-36
2024/01/25 01:30:18;;;;;;;13.30;3.20;;;8.10;88.10;;;;;;5074642;28;20021;-36
2024/01/25 01:32:43;;;;;;;18.30;3.28;;;8.00;88.10;;;;;;5074485;28;20028;-35
2024/01/25 01:35:09;;;;;;;21.73;3.30;;;8.00;88.10;;;;;;5074305;28;20048;-35
2024/01/25 01:37:35;;;;;;;13.90;3.58;;;8.00;88.20;;;;;;5074793;28;20052;-35
2024/01/25 01:40:00;;;;;;;13.38;2.92;;;7.90;88.10;;;;;;5074428;28;20475;-34
2024/01/25 01:42:27;;;;;;;13.23;3.22;;;7.90;88.30;;;;;;5074428;28;20019;-35
2024/01/25 01:44:53;;;;;;;12.02;3.47;;;7.90;88.40;;;;;;5074228;28;20029;-35
2024/01/25 01:47:19;;;;;;;12.10;3.03;;;7.80;88.40;;;;;;5074592;28;20540;-35
2024/01/25 01:49:45;;;;;;;17.52;3.35;;;7.80;88.50;;;;;;5074279;28;20396;-34
2024/01/25 01:52:11;;;;;;;16.75;3.95;;;7.80;88.50;;;;;;5074151;28;20062;-35
2024/01/25 01:54:37;;;;;;;13.80;3.15;;;7.70;88.50;;;;;;5074093;28;20028;-35
2024/01/25 01:57:03;;;;;;;18.33;3.25;;;7.70;88.70;;;;;;5074397;28;20388;-36
2024/01/25 01:59:30;;;;;;;17.23;3.10;;;7.70;88.70;;;;;;5074136;28;20016;-36
2024/01/25 02:01:56;;;;;;;16.98;3.30;;;7.60;88.60;;;;;;5074083;28;20016;-36
2024/01/25 02:04:21;;;;;;;18.00;3.72;;;7.60;88.80;;;;;;5072860;28;20366;-36
2024/01/25 02:06:47;;;;;;;14.45;3.53;;;7.60;88.80;;;;;;5073638;28;20333;-35
2024/01/25 02:09:13;;;;;;;23.00;4.20;;;7.50;88.80;;;;;;5073949;28;20490;-37
2024/01/25 02:11:39;;;;;;;20.73;3.72;;;7.50;88.90;;;;;;5073836;28;20400;-34
2024/01/25 02:14:06;;;;;;;15.60;3.63;;;7.50;89.00;;;;;;5073870;28;20468;-34
2024/01/25 02:16:31;;;;;;;16.90;3.75;;;7.40;89.00;;;;;;5055935;28;20102;-36
2024/01/25 02:18:57;;;;;;;18.17;3.40;;;7.40;89.10;;;;;;5073933;28;20028;-34
2024/01/25 02:21:23;;;;;;;17.45;3.20;;;7.40;89.20;;;;;;5074012;28;20384;-35
2024/01/25 02:23:50;;;;;;;15.48;3.08;;;7.40;89.90;;;;;;5073613;28;20031;-35
2024/01/25 02:26:15;;;;;;;12.82;3.17;;;7.30;89.20;;;;;;5073307;28;20025;-34
2024/01/25 02:28:41;;;;;;;14.43;3.45;;;7.30;89.30;;;;;;5073422;28;20078;-34
2024/01/25 02:31:06;;;;;;;17.20;3.50;;;7.30;89.40;;;;;;5073513;28;20025;-34
2024/01/25 02:33:32;;;;;;;15.85;3.15;;;7.30;89.50;;;;;;5073393;28;20048;-35
2024/01/25 02:35:58;;;;;;;16.48;3.70;;;7.30;89.50;;;;;;5073627;28;20074;-35
2024/01/25 02:38:23;;;;;;;20.65;3.33;;;7.20;89.40;;;;;;5073311;28;20024;-36
2024/01/25 02:40:49;;;;;;;20.95;3.75;;;7.20;89.50;;;;;;5073153;28;20043;-34
2024/01/25 02:43:15;;;;;;;13.18;2.95;;;7.20;89.60;;;;;;5073332;28;20023;-34
2024/01/25 02:45:40;;;;;;;16.33;3.05;;;7.20;89.60;;;;;;5073236;28;20451;-35
2024/01/25 02:48:06;;;;;;;18.67;3.78;;;7.20;89.70;;;;;;5073450;28;20028;-35
2024/01/25 02:50:32;;;;;;;20.85;3.92;;;7.10;89.70;;;;;;5073446;28;20052;-36
2024/01/25 02:52:58;;;;;;;15.80;3.80;;;7.10;89.70;;;;;;5072943;28;20024;-35
2024/01/25 02:55:24;;;;;;;17.70;3.38;;;7.10;89.80;;;;;;5073251;28;20570;-36
2024/01/25 02:57:49;;;;;;;12.13;2.95;;;7.10;89.80;;;;;;5072975;28;20052;-36
2024/01/25 03:00:15;;;;;;;17.38;3.15;;;7.00;89.90;;;;;;5073043;28;20499;-35
2024/01/25 03:02:41;;;;;;;18.40;3.55;;;7.10;90.00;;;;;;5073142;28;20223;-36
2024/01/25 03:05:07;;;;;;;16.65;2.92;;;7.00;90.00;;;;;;5072943;28;20016;-36
2024/01/25 03:07:32;;;;;;;13.60;2.97;;;7.00;90.00;;;;;;5073067;28;20012;-35
2024/01/25 03:09:58;;;;;;;13.80;3.50;;;7.00;90.00;;;;;;5072691;28;20134;-37
2024/01/25 03:12:23;;;;;;;15.95;3.20;;;6.90;90.00;;;;;;5072693;28;20028;-37
2024/01/25 03:14:49;;;;;;;16.15;3.47;;;6.90;90.00;;;;;;5072704;28;20021;-34
2024/01/25 03:17:15;;;;;;;14.38;3.60;;;6.90;90.10;;;;;;5072740;28;20435;-35
2024/01/25 03:19:40;;;;;;;18.05;3.67;;;6.90;90.10;;;;;;5072479;28;20037;-37
2024/01/25 03:22:06;;;;;;;14.63;3.35;;;6.90;90.10;;;;;;5072422;28;20063;-35
2024/01/25 03:24:31;;;;;;;14.55;3.67;;;6.80;90.10;;;;;;5072399;28;20476;-35
2024/01/25 03:26:57;;;;;;;13.00;3.25;;;6.80;90.10;;;;;;5072734;28;20021;-34
2024/01/25 03:29:23;;;;;;;22.23;3.83;;;6.80;90.10;;;;;;5072523;28;20025;-35
2024/01/25 03:31:48;;;;;;;15.15;3.85;;;6.80;90.20;;;;;;5072337;28;20028;-35
2024/01/25 03:34:14;;;;;;;17.67;3.58;;;6.80;90.20;;;;;;5072185;28;20072;-35
2024/01/25 03:36:40;;;;;;;15.00;3.03;;;6.80;90.20;;;;;;5072401;28;20035;-34
2024/01/25 03:39:07;;;;;;;15.63;3.45;;;6.80;90.30;;;;;;5072382;28;20025;-35
2024/01/25 03:41:32;;;;;;;19.02;4.05;;;6.80;90.30;;;;;;5072107;28;20039;-36
2024/01/25 03:43:58;;;;;;;16.23;3.42;;;6.80;90.30;;;;;;5072472;28;20032;-34
2024/01/25 03:46:23;;;;;;;20.10;3.72;;;6.80;90.30;;;;;;5072043;28;20090;-36
2024/01/25 03:48:49;;;;;;;20.55;3.67;;;6.80;90.30;;;;;;5072004;28;20078;-35
2024/01/25 03:51:16;;;;;;;15.80;3.15;;;6.70;90.30;;;;;;5071482;28;20055;-34
2024/01/25 03:53:42;;;;;;;14.68;3.85;;;6.80;90.30;;;;;;5071907;28;20062;-35
2024/01/25 03:56:12;;;;;;;14.55;3.22;;;6.70;90.30;;;;;;5071736;28;20016;-35
2024/01/25 03:58:38;;;;;;;22.33;3.38;;;6.80;90.30;;;;;;5071994;28;20021;-35
2024/01/25 04:01:04;;;;;;;17.50;3.80;;;6.80;90.30;;;;;;5071834;28;20031;-36
2024/01/25 04:03:29;;;;;;;13.02;3.22;;;6.70;90.30;;;;;;5071673;28;20031;-34
2024/01/25 04:05:55;;;;;;;19.02;3.72;;;6.80;90.30;;;;;;5071780;28;20055;-35
2024/01/25 04:08:20;;;;;;;16.15;3.08;;;6.70;90.30;;;;;;5071762;28;20381;-35
2024/01/25 04:10:46;;;;;;;15.60;3.10;;;6.70;90.30;;;;;;5071843;28;20028;-35
2024/01/25 04:13:11;;;;;;;17.67;3.42;;;6.70;90.30;;;;;;5071745;28;20107;-36
2024/01/25 04:15:37;;;;;;;18.63;4.05;;;6.70;90.40;;;;;;5071523;28;20032;-35
2024/01/25 04:18:03;;;;;;;17.55;3.88;;;6.70;90.40;;;;;;5071737;28;20020;-37
2024/01/25 04:20:29;;;;;;;18.15;3.33;;;6.70;90.40;;;;;;5071499;28;20081;-35
2024/01/25 04:22:54;;;;;;;16.52;3.95;;;6.60;90.40;;;;;;5071803;28;20062;-36
2024/01/25 04:25:20;;;;;;;15.75;3.58;;;6.60;90.40;;;;;;5071478;28;20530;-34
2024/01/25 04:27:45;;;;;;;15.30;3.53;;;6.60;90.40;;;;;;5071341;28;20024;-34
2024/01/25 04:30:11;;;;;;;16.35;4.00;;;6.60;90.40;;;;;;5071499;28;20033;-34
2024/01/25 04:32:37;;;;;;;17.55;3.47;;;6.60;90.50;;;;;;5070013;28;20070;-35
2024/01/25 04:35:02;;;;;;;15.48;3.17;;;6.50;90.50;;;;;;5071331;28;20059;-36
2024/01/25 04:37:28;;;;;;;20.05;4.57;;;6.50;90.50;;;;;;5071814;28;20021;-34
2024/01/25 04:39:54;;;;;;;16.35;3.72;;;6.50;90.50;;;;;;5071298;28;20392;-35
2024/01/25 04:42:19;;;;;;;15.75;3.53;;;6.40;90.50;;;;;;5071391;28;20074;-37
2024/01/25 04:44:45;;;;;;;17.40;3.70;;;6.40;90.50;;;;;;5071060;28;20032;-34
2024/01/25 04:47:10;;;;;;;15.90;3.47;;;6.40;90.50;;;;;;5071219;28;20023;-34
2024/01/25 04:49:36;;;;;;;15.75;3.63;;;6.40;90.60;;;;;;5071315;28;20134;-34
2024/01/25 04:52:02;;;;;;;14.70;3.50;;;6.40;90.60;;;;;;5071441;28;20031;-35
2024/01/25 04:54:28;;;;;;;18.58;3.70;;;6.40;90.90;;;;;;5071327;28;20047;-35
2024/01/25 04:56:54;;;;;;;13.93;3.30;;;6.30;90.60;;;;;;5071155;28;20107;-35
2024/01/25 04:59:20;;;;;;;18.08;3.45;;;6.40;90.60;;;;;;5071383;28;20488;-35
2024/01/25 05:01:45;;;;;;;21.65;4.18;;;6.30;90.60;;;;;;5071094;28;20027;-35
2024/01/25 05:04:11;;;;;;;18.25;3.40;;;6.30;90.60;;;;;;5075275;28;20099;-35
2024/01/25 05:06:36;;;;;;;19.90;3.50;;;6.30;90.70;;;;;;5074969;28;20024;-35
2024/01/25 05:09:02;;;;;;;20.73;3.88;;;6.20;90.60;;;;;;5075057;28;20028;-35
2024/01/25 05:11:28;;;;;;;19.67;4.30;;;6.20;90.70;;;;;;5075095;28;20024;-36
2024/01/25 05:13:54;;;;;;;14.18;3.65;;;6.10;90.70;;;;;;5073748;28;20380;-37
2024/01/25 05:16:19;;;;;;;18.55;3.88;;;6.10;90.70;;;;;;5074846;28;20477;-39
2024/01/25 05:18:45;;;;;;;15.02;3.72;;;6.10;90.80;;;;;;5074928;28;20024;-35
2024/01/25 05:21:10;;;;;;;17.08;3.22;;;6.00;90.80;;;;;;5074779;28;20473;-37
2024/01/25 05:23:36;;;;;;;17.15;3.35;;;6.10;90.80;;;;;;5074632;28;20016;-35
2024/01/25 05:26:02;;;;;;;16.13;3.20;;;6.00;90.80;;;;;;5074459;28;20081;-35
2024/01/25 05:28:27;;;;;;;18.60;3.25;;;6.00;90.90;;;;;;5074731;28;20024;-36
2024/01/25 05:30:53;;;;;;;15.57;3.47;;;6.00;90.90;;;;;;5074731;28;20028;-36
2024/01/25 05:33:18;;;;;;;12.40;3.33;;;6.00;90.90;;;;;;5074521;28;20032;-35
2024/01/25 05:35:44;;;;;;;21.33;3.78;;;6.00;90.90;;;;;;5074382;28;20536;-35
2024/01/25 05:38:10;;;;;;;11.82;3.30;;;6.00;90.90;;;;;;5074510;28;20077;-36
2024/01/25 05:40:35;;;;;;;16.48;3.25;;;6.00;90.90;;;;;;5074367;28;20024;-34
2024/01/25 05:43:01;;;;;;;11.95;3.38;;;6.00;90.90;;;;;;5074911;28;20063;-35
2024/01/25 05:45:26;;;;;;;17.33;3.60;;;6.00;90.90;;;;;;5074444;28;20016;-35
2024/01/25 05:47:52;;;;;;;13.25;3.72;;;6.00;91.00;;;;;;5074954;28;20017;-35
2024/01/25 05:50:18;;;;;;;19.38;3.67;;;6.00;91.00;;;;;;5073192;28;20284;-35
2024/01/25 05:52:44;;;;;;;15.88;3.28;;;6.00;91.00;;;;;;5074349;28;20024;-35
2024/01/25 05:55:09;;;;;;;21.15;4.45;;;6.00;91.00;;;;;;5074239;28;20028;-34
2024/01/25 05:57:36;;;;;;;20.98;3.65;;;6.00;91.00;;;;;;5074238;28;20365;-36
2024/01/25 06:00:03;;;;;;;21.15;3.53;;;5.90;91.00;;;;;;5074166;28;20422;-35
2024/01/25 06:02:28;;;;;;;16.25;3.60;;;5.90;91.00;;;;;;5074040;28;20067;-34
2024/01/25 06:04:55;;;;;;;16.50;3.63;;;5.90;91.00;;;;;;5074578;28;20070;-36
2024/01/25 06:07:20;;;;;;;16.52;4.00;;;5.90;91.00;;;;;;5074050;28;20484;-33
2024/01/25 06:09:46;;;;;;;14.75;3.80;;;5.90;91.30;;;;;;5074126;28;20154;-34
2024/01/25 06:12:11;;;;;;;18.05;3.75;;;5.90;91.10;;;;;;5073870;28;20031;-34
2024/01/25 06:14:37;;;;;;;17.98;4.03;;;5.90;91.10;;;;;;5073218;28;20489;-35
2024/01/25 06:17:03;;;;;;;15.73;4.28;;;5.80;91.10;;;;;;5074010;28;20380;-35
2024/01/25 06:19:29;;;;;;;22.20;4.40;;;5.90;91.10;;;;;;5073744;28;20021;-34
2024/01/25 06:21:54;;;;;;;16.50;3.80;;;5.80;91.10;;;;;;5073669;28;20470;-33
2024/01/25 06:24:20;;;;;;;14.25;3.78;;;5.80;91.10;;;;;;5073760;28;20069;-34
2024/01/25 06:26:45;;;;;;;25.92;4.47;;;5.80;91.10;;;;;;5073659;28;20017;-33
2024/01/25 06:29:11;;;;;;;24.95;4.88;;;5.80;91.50;;;;;;5073464;28;20024;-34
2024/01/25 06:31:43;;;;;;;16.77;4.05;;;5.80;91.20;;;;;;5073663;28;20032;-41
2024/01/25 06:34:08;;;;;;;19.48;4.30;;;5.70;91.20;;;;;;5073652;28;20095;-35
2024/01/25 06:36:34;;;;;;;16.17;4.43;;;5.70;91.20;;;;;;5073593;28;20420;-35
2024/01/25 06:38:59;;;;;;;19.98;4.43;;;5.70;91.20;;;;;;5073459;28;20028;-35
2024/01/25 06:41:25;;;;;;;20.77;4.25;;;5.70;91.30;;;;;;5073467;28;20401;-36
2024/01/25 06:43:50;;;;;;;20.88;4.63;;;5.70;91.30;;;;;;5073264;28;20031;-34
2024/01/25 06:46:16;;;;;;;21.50;4.57;;;5.70;91.30;;;;;;5073493;28;20028;-35
2024/01/25 06:48:41;;;;;;;18.63;4.57;;;5.70;91.30;;;;;;5073198;28;20027;-35
2024/01/25 06:51:07;;;;;;;17.63;4.50;;;5.70;91.30;;;;;;5073110;28;20107;-36
2024/01/25 06:53:32;;;;;;;16.02;4.28;;;5.70;91.30;;;;;;5073169;28;20025;-35
2024/01/25 06:55:58;;;;;;;16.08;4.25;;;5.70;91.30;;;;;;5072987;28;20032;-34
2024/01/25 06:58:24;;;;;;;16.98;4.18;;;5.70;91.30;;;;;;5073179;28;20028;-36
2024/01/25 07:00:49;;;;;;;18.55;5.30;;;5.70;91.30;;;;;;5072820;28;20115;-35
2024/01/25 07:03:15;;;;;;;19.05;4.75;;;5.70;91.30;;;;;;5072895;28;20067;-35
2024/01/25 07:05:41;;;;;;;19.40;4.20;;;5.70;91.30;;;;;;5072877;28;20021;-34
2024/01/25 07:08:08;;;;;;;21.80;4.90;;;5.70;91.40;;;;;;5073245;28;20045;-34
2024/01/25 07:10:34;;;;;;;21.55;4.85;;;5.70;91.40;;;;;;5071342;28;20454;-35
2024/01/25 07:13:00;;;;;;;25.63;4.40;;;5.70;91.40;;;;;;5072589;28;20056;-35
2024/01/25 07:15:26;;;;;;;20.73;4.93;;;5.70;91.40;;;;;;5072853;28;20032;-35
2024/01/25 07:17:51;;;;;;;18.58;4.65;;;5.70;91.40;;;;;;5072871;28;20021;-35
2024/01/25 07:20:17;;;;;;;18.63;4.60;;;5.70;91.40;;;;;;5072632;28;20149;-34
2024/01/25 07:22:43;;;;;;;23.85;4.28;;;5.70;91.40;;;;;;5071147;28;20020;-35
2024/01/25 07:25:08;;;;;;;20.95;4.70;;;5.70;91.40;;;;;;5072440;28;20400;-35
2024/01/25 07:27:34;;;;;;;21.40;3.67;;;5.70;91.40;;;;;;5070467;28;20012;-35
2024/01/25 07:30:00;;;;;;;16.70;3.90;;;5.80;91.50;;;;;;5072390;28;20033;-35
2024/01/25 07:32:25;;;;;;;18.33;3.88;;;5.80;91.40;;;;;;5072558;28;20291;-36
2024/01/25 07:34:51;;;;;;;16.77;3.78;;;5.80;91.50;;;;;;5072265;28;20118;-35
2024/01/25 07:37:18;;;;;;;18.38;4.15;;;5.80;91.40;;;;;;5072702;28;20021;-34
2024/01/25 07:39:44;;;;;;;19.48;3.97;;;5.80;91.40;;;;;;5072242;28;20337;-35
2024/01/25 07:42:10;;;;;;;17.45;3.95;;;5.80;91.40;;;;;;5072407;28;20107;-35
2024/01/25 07:44:35;;;;;;;15.98;4.10;;;5.90;91.40;;;;;;5072071;28;20048;-36
2024/01/25 07:47:02;;;;;;;15.40;4.60;;;5.90;91.40;;;;;;5070949;28;20403;-34
2024/01/25 07:49:27;;;;;;;13.25;3.97;;;5.90;91.40;;;;;;5072178;28;20054;-36
2024/01/25 07:51:53;;;;;;;20.60;4.53;;;5.90;91.30;;;;;;5072164;28;20070;-36
2024/01/25 07:54:18;;;;;;;18.95;4.18;;;6.00;91.30;;;;;;5070870;28;20067;-35
2024/01/25 07:56:44;;;;;;;19.40;4.38;;;6.00;91.30;;;;;;5070642;28;20063;-36
2024/01/25 07:59:09;;;;;;;14.77;4.55;;;6.00;91.30;;;;;;5071897;28;20035;-35
2024/01/25 08:01:35;;;;;;;16.50;3.85;;;6.00;91.30;;;;;;5071877;28;20074;-35
2024/01/25 08:04:03;;;;;;;21.95;5.10;;;6.00;91.30;;;;;;5071897;28;20025;-35
2024/01/25 08:06:28;;;;;;;22.33;4.20;;;6.10;91.30;;;;;;5070343;28;20465;-35
2024/01/25 08:08:54;;;;;;;16.10;4.53;;;6.10;91.30;;;;;;5071810;28;20016;-36
2024/01/25 08:11:21;;;;;;;13.95;4.15;;;6.10;91.30;;;;;;5071726;28;20024;-35
2024/01/25 08:13:47;;;;;;;18.48;4.43;;;6.10;91.30;;;;;;5071803;28;20158;-35
2024/01/25 08:16:13;;;;;;;16.38;3.70;;;6.10;91.20;;;;;;5071485;28;20024;-35
2024/01/25 08:18:40;;;;;;;17.92;4.93;;;6.10;91.20;;;;;;5071795;28;20035;-36
2024/01/25 08:21:05;;;;;;;17.48;4.38;;;6.10;91.20;;;;;;5070379;28;20373;-36
2024/01/25 08:23:31;;;;;;;21.60;4.70;;;6.10;91.20;;;;;;5071566;28;20030;-35
2024/01/25 08:25:56;;;;;;;13.65;4.35;;;6.10;91.20;;;;;;5071456;28;20037;-35
2024/01/25 08:28:22;;;;;;;16.27;4.50;;;6.20;91.20;;;;;;5071385;28;20066;-35
2024/01/25 08:30:48;;;;;;;22.63;4.70;;;6.20;91.20;;;;;;5071980;28;20319;-35
2024/01/25 08:33:14;;;;;;;15.95;3.72;;;6.20;91.20;;;;;;5071425;28;20032;-35
2024/01/25 08:35:40;;;;;;;17.50;4.30;;;6.20;91.20;;;;;;5071791;28;20481;-36
2024/01/25 08:38:06;;;;;;;18.75;3.90;;;6.30;91.20;;;;;;5071163;28;20021;-37
2024/01/25 08:40:32;;;;;;;17.45;4.20;;;6.30;91.20;;;;;;5071392;28;20059;-36
2024/01/25 08:42:58;;;;;;;16.70;4.13;;;6.30;91.10;;;;;;5071505;28;20013;-35
2024/01/25 08:45:24;;;;;;;18.23;4.35;;;6.40;91.10;;;;;;5071397;28;20020;-35
2024/01/25 08:47:51;;;;;;;15.27;3.90;;;6.40;91.10;;;;;;5071470;28;20025;-35
2024/01/25 08:50:16;;;;;;;18.35;4.50;;;6.40;91.10;;;;;;5071736;28;20033;-35
2024/01/25 08:52:42;;;;;;;18.95;4.60;;;6.40;91.10;;;;;;5071298;28;20025;-34
2024/01/25 08:55:09;;;;;;;21.85;5.00;;;6.40;91.10;;;;;;5071353;28;20028;-35
2024/01/25 08:57:35;;;;;;;17.25;3.92;;;6.50;91.10;;;;;;5071199;28;20444;-35
2024/01/25 09:00:01;;;;;;;17.65;4.10;;;6.50;91.10;;;;;;5071308;28;20088;-35
2024/01/25 09:02:29;;;;;;;18.50;4.38;;;6.60;91.10;;;;;;5071290;28;20107;-35
2024/01/25 09:04:55;;;;;;;17.05;4.72;;;6.60;91.00;;;;;;5071309;28;20523;-36
2024/01/25 09:07:20;;;;;;;19.88;4.57;;;6.70;91.00;;;;;;5071641;28;20256;-36
2024/01/25 09:09:46;;;;;;;12.35;3.97;;;6.70;91.00;;;;;;5069637;28;20028;-36
2024/01/25 09:12:12;;;;;;;20.27;4.60;;;6.70;90.90;;;;;;5070216;28;20033;-35
2024/01/25 09:14:38;;;;;;;20.85;4.05;;;6.80;90.90;;;;;;5069778;28;20024;-32
2024/01/25 09:17:04;;;;;;;19.48;4.82;;;6.80;90.90;;;;;;5069793;28;20020;-35
2024/01/25 09:19:30;;;;;;;21.73;4.85;;;6.70;90.80;;;;;;5069706;28;20298;-34
2024/01/25 09:21:58;;;;;;;17.85;4.00;;;6.70;90.80;;;;;;5068329;28;20099;-37
2024/01/25 09:24:23;;;;;;;24.35;5.10;;;6.80;90.90;;;;;;5069876;28;20017;-35
2024/01/25 09:26:49;;;;;;;21.40;4.63;;;6.80;90.90;;;;;;5069618;28;20550;-34
2024/01/25 09:29:14;;;;;;;19.15;4.82;;;6.80;90.90;;;;;;5070141;28;20553;-35
2024/01/25 09:31:40;;;;;;;18.25;4.78;;;6.80;90.80;;;;;;5069540;28;20663;-35
2024/01/25 09:34:06;;;;;;;15.82;4.20;;;6.90;90.90;;;;;;5069727;28;20124;-36
2024/01/25 09:36:32;;;;;;;13.20;4.45;;;7.00;90.90;;;;;;5069480;28;20033;-34
2024/01/25 09:38:57;;;;;;;20.23;4.60;;;7.00;90.90;;;;;;5070851;28;20057;-35
2024/01/25 09:41:23;;;;;;;17.88;4.72;;;7.00;90.80;;;;;;5071173;28;20024;-36
2024/01/25 09:43:49;;;;;;;23.05;5.22;;;7.10;90.80;;;;;;5070857;28;20384;-34
2024/01/25 09:46:15;;;;;;;19.77;4.35;;;7.10;90.80;;;;;;5070763;28;20016;-35
2024/01/25 09:48:43;;;;;;;21.15;5.55;;;7.20;90.80;;;;;;5071119;28;20024;-35
2024/01/25 09:51:11;;;;;;;20.00;5.63;;;7.20;90.70;;;;;;5074718;28;20028;-36
2024/01/25 09:53:39;;;;;;;20.83;4.97;;;7.20;90.70;;;;;;5074598;28;20100;-35
2024/01/25 09:56:10;;;;;;;20.42;5.25;;;7.20;90.70;;;;;;5074459;28;20032;-36
2024/01/25 09:58:42;;;;;;;17.70;4.40;;;7.20;90.70;;;;;;5074233;28;20063;-35
2024/01/25 10:01:13;;;;;;;15.10;4.57;;;7.20;90.70;;;;;;5074126;28;20020;-35
2024/01/25 10:03:48;;;;;;;18.45;4.70;;;7.30;90.70;;;;;;5074541;28;20469;-41
2024/01/25 10:06:15;;;;;;;21.30;4.45;;;7.30;90.70;;;;;;5074224;28;20048;-37
2024/01/25 10:08:41;;;;;;;28.67;5.40;;;7.30;90.70;;;;;;5074350;28;20410;-35
2024/01/25 10:11:11;;;;;;;23.83;4.75;;;7.40;90.70;;;;;;5074213;28;20024;-37
2024/01/25 10:13:44;;;;;;;20.85;4.72;;;7.50;90.60;;;;;;5074177;28;20021;-34
2024/01/25 10:16:16;;;;;;;22.70;5.03;;;7.50;90.60;;;;;;5074300;28;20052;-36
2024/01/25 10:18:43;;;;;;;23.50;5.30;;;7.50;90.50;;;;;;5073935;28;20024;-36
2024/01/25 10:21:10;;;;;;;19.38;4.93;;;7.50;90.50;;;;;;5074108;28;20028;-35
2024/01/25 10:23:36;;;;;;;19.75;5.20;;;7.50;90.50;;;;;;5074074;28;20475;-35
2024/01/25 10:26:02;;;;;;;19.85;5.20;;;7.60;90.50;;;;;;5073946;28;20028;-34
2024/01/25 10:28:30;;;;;;;22.60;5.47;;;7.70;90.50;;;;;;5072340;28;20016;-34
2024/01/25 10:31:01;;;;;;;20.08;4.78;;;7.70;90.50;;;;;;5073809;28;20028;-36
2024/01/25 10:33:27;;;;;;;17.92;4.82;;;7.70;90.50;;;;;;5073526;28;20064;-34
2024/01/25 10:36:03;;;;;;;18.60;4.68;;;7.80;90.40;;;;;;5073865;28;20417;-35
2024/01/25 10:38:33;;;;;;;14.88;4.43;;;7.90;90.40;;;;;;5074115;28;20065;-38
2024/01/25 10:41:03;;;;;;;18.42;4.47;;;7.90;90.40;;;;;;5073408;28;20428;-35
2024/01/25 10:43:32;;;;;;;19.95;4.63;;;8.00;90.40;;;;;;5073544;28;20077;-35
2024/01/25 10:46:01;;;;;;;23.98;5.07;;;8.10;90.40;;;;;;5073352;28;20480;-36
2024/01/25 10:48:27;;;;;;;22.08;5.80;;;8.10;90.30;;;;;;5072235;28;20024;-35
2024/01/25 10:50:56;;;;;;;18.23;5.63;;;8.20;90.20;;;;;;5073279;28;20033;-35
2024/01/25 10:53:28;;;;;;;25.02;5.82;;;8.10;90.20;;;;;;5073302;28;20033;-34
2024/01/25 10:55:54;;;;;;;19.90;4.47;;;8.20;90.20;;;;;;5073025;28;20161;-34
2024/01/25 10:58:20;;;;;;;16.38;4.72;;;8.20;90.20;;;;;;5073055;28;20133;-35
2024/01/25 11:01:01;;;;;;;19.95;4.90;;;8.20;90.20;;;;;;5073073;28;20019;-36
2024/01/25 11:03:33;;;;;;;23.23;4.72;;;8.30;90.20;;;;;;5073341;28;20473;-36
2024/01/25 11:06:11;;;;;;;19.80;5.18;;;8.30;90.20;;;;;;5072917;28;20446;-34
2024/01/25 11:08:38;;;;;;;19.13;5.72;;;8.30;90.10;;;;;;5073301;28;20460;-35
2024/01/25 11:11:09;;;;;;;25.25;4.95;;;8.40;90.10;;;;;;5073462;28;20082;-36
2024/01/25 11:13:35;;;;;;;20.70;5.32;;;8.40;90.10;;;;;;5072809;28;20027;-35
2024/01/25 11:16:17;;;;;;;22.08;5.28;;;8.50;90.10;;;;;;5072946;28;20112;-35
2024/01/25 11:18:59;;;;;;;24.20;6.15;;;8.60;90.10;;;;;;5072679;28;20027;-34
2024/01/25 11:21:44;;;;;;;22.63;5.90;;;8.70;90.10;;;;;;5072678;28;20040;-35
2024/01/25 11:24:13;;;;;;;21.67;5.65;;;8.70;90.00;;;;;;5073000;28;20441;-36
2024/01/25 11:26:38;;;;;;;17.00;5.60;;;8.70;90.00;;;;;;5072456;28;20103;-35
2024/01/25 11:29:04;;;;;;;18.38;4.80;;;8.80;90.00;;;;;;5072393;28;20494;-35
2024/01/25 11:31:30;;;;;;;20.92;5.43;;;8.80;90.00;;;;;;5072596;28;20381;-37
2024/01/25 11:33:59;;;;;;;22.05;5.47;;;8.80;90.00;;;;;;5072244;28;20405;-37
2024/01/25 11:36:25;;;;;;;15.60;5.38;;;8.90;90.00;;;;;;5072563;28;20024;-35
2024/01/25 11:38:51;;;;;;;23.25;5.50;;;8.90;90.00;;;;;;5072543;28;20117;-34
2024/01/25 11:41:17;;;;;;;19.42;5.00;;;9.00;90.00;;;;;;5071018;28;20226;-36
2024/01/25 11:43:42;;;;;;;17.77;5.03;;;9.10;89.90;;;;;;5072221;28;20385;-34
2024/01/25 11:46:08;;;;;;;18.05;5.30;;;9.10;89.70;;;;;;5072436;28;20020;-34
2024/01/25 11:48:38;;;;;;;23.73;5.47;;;9.20;89.70;;;;;;5072595;28;20435;-37
2024/01/25 11:51:03;;;;;;;18.98;5.22;;;9.20;89.60;;;;;;5070852;28;20024;-35
2024/01/25 11:53:29;;;;;;;17.45;5.20;;;9.30;89.50;;;;;;5072267;28;20078;-35
2024/01/25 11:55:56;;;;;;;22.65;5.60;;;9.40;89.40;;;;;;5072251;28;20033;-35
2024/01/25 11:58:22;;;;;;;21.55;5.95;;;9.40;89.30;;;;;;5072088;28;20473;-35
2024/01/25 12:00:48;;;;;;;19.60;5.47;;;9.40;89.10;;;;;;5070742;28;20035;-34
2024/01/25 12:03:15;;;;;;;22.67;6.88;;;9.40;89.00;;;;;;5071835;28;20020;-36
2024/01/25 12:05:41;;;;;;;21.13;6.65;;;9.50;89.00;;;;;;5070316;28;20029;-36
2024/01/25 12:08:13;;;;;;;20.15;5.82;;;9.50;89.00;;;;;;5071926;28;20025;-36
2024/01/25 12:10:38;;;;;;;21.30;5.63;;;9.50;88.90;;;;;;5071811;28;20031;-35
2024/01/25 12:13:07;;;;;;;21.05;6.05;;;9.50;88.80;;;;;;5071112;28;20028;-35
2024/01/25 12:15:33;;;;;;;21.55;5.82;;;9.50;88.80;;;;;;5071923;28;20032;-34
2024/01/25 12:17:58;;;;;;;22.50;6.20;;;9.50;88.80;;;;;;5071873;28;20310;-33
2024/01/25 12:20:24;;;;;;;22.05;5.70;;;9.60;88.80;;;;;;5070456;28;20028;-36
2024/01/25 12:22:50;;;;;;;19.75;5.70;;;9.60;88.70;;;;;;5071705;28;20028;-40
2024/01/25 12:25:16;;;;;;;19.40;5.45;;;9.60;88.60;;;;;;5070376;28;20021;-36
2024/01/25 12:27:41;;;;;;;21.27;6.25;;;9.60;88.60;;;;;;5071521;28;20081;-34
2024/01/25 12:30:08;;;;;;;23.40;5.68;;;9.70;88.60;;;;;;5071983;28;20107;-35
2024/01/25 12:32:34;;;;;;;20.95;6.47;;;9.60;88.50;;;;;;5071623;28;20103;-35
2024/01/25 12:35:01;;;;;;;22.15;6.05;;;9.60;88.50;;;;;;5071505;28;20117;-36
2024/01/25 12:37:27;;;;;;;19.80;6.03;;;9.60;88.50;;;;;;5071776;28;20469;-36
2024/01/25 12:39:54;;;;;;;24.27;6.00;;;9.60;88.60;;;;;;5071305;28;20078;-34
2024/01/25 12:42:20;;;;;;;19.30;6.05;;;9.60;88.50;;;;;;5070567;28;20096;-35